sensor_id;sensor_type;location;lat;lon;timestamp;pressure;altitude;pressure_sealevel;temperature;humidity
45894;BME280;31603;51.148;16.932;2022-08-30T00:00:54;100584.25;;;15.66;100.00
45894;BME280;31603;51.148;16.932;2022-08-30T00:03:34;100589.38;;;15.62;100.00
45894;BME280;31603;51.148;16.932;2022-08-30T00:06:01;100585.50;;;15.81;100.00
45894;BME280;31603;51.148;16.932;2022-08-30T00:08:28;100574.66;;;15.80;100.00
45894;BME280;31603;51.148;16.932;2022-08-30T00:10:56;100534.25;;;15.05;100.00
45894;BME280;31603;51.148;16.932;2022-08-30T00:13:24;100591.34;;;16.03;100.00
45894;BME280;31603;51.148;16.932;2022-08-30T00:15:51;100565.53;;;15.91;100.00
45894;BME280;31603;51.148;16.932;2022-08-30T00:18:19;100576.31;;;15.51;100.00
45894;BME280;31603;51.148;16.932;2022-08-30T00:20:48;100586.75;;;15.19;100.00
45894;BME280;31603;51.148;16.932;2022-08-30T00:23:15;100600.03;;;14.91;100.00
45894;BME280;31603;51.148;16.932;2022-08-30T00:25:42;100606.97;;;15.01;100.00
45894;BME280;31603;51.148;16.932;2022-08-30T00:28:09;100588.50;;;14.95;100.00
45894;BME280;31603;51.148;16.932;2022-08-30T00:30:36;100618.50;;;14.98;100.00
45894;BME280;31603;51.148;16.932;2022-08-30T00:33:03;100604.13;;;14.89;100.00
45894;BME280;31603;51.148;16.932;2022-08-30T00:35:31;100607.13;;;15.06;100.00
45894;BME280;31603;51.148;16.932;2022-08-30T00:38:00;100617.69;;;14.72;100.00
45894;BME280;31603;51.148;16.932;2022-08-30T00:40:27;100605.03;;;15.01;100.00
45894;BME280;31603;51.148;16.932;2022-08-30T00:42:55;100618.19;;;14.37;100.00
45894;BME280;31603;51.148;16.932;2022-08-30T00:45:25;100590.75;;;14.36;100.00
45894;BME280;31603;51.148;16.932;2022-08-30T00:47:53;100624.88;;;14.23;100.00
45894;BME280;31603;51.148;16.932;2022-08-30T00:50:23;100621.34;;;14.41;100.00
45894;BME280;31603;51.148;16.932;2022-08-30T00:52:53;100626.59;;;14.24;100.00
45894;BME280;31603;51.148;16.932;2022-08-30T00:55:21;100624.09;;;14.41;100.00
45894;BME280;31603;51.148;16.932;2022-08-30T00:57:51;100618.06;;;14.26;100.00
45894;BME280;31603;51.148;16.932;2022-08-30T01:00:18;100622.72;;;14.32;100.00
45894;BME280;31603;51.148;16.932;2022-08-30T01:02:45;100615.97;;;14.21;100.00
45894;BME280;31603;51.148;16.932;2022-08-30T01:05:13;100594.84;;;14.02;100.00
45894;BME280;31603;51.148;16.932;2022-08-30T01:07:41;100609.56;;;14.27;100.00
45894;BME280;31603;51.148;16.932;2022-08-30T01:10:14;100597.75;;;14.38;100.00
45894;BME280;31603;51.148;16.932;2022-08-30T01:12:42;100595.19;;;14.37;100.00
45894;BME280;31603;51.148;16.932;2022-08-30T01:15:11;100598.88;;;14.31;100.00
45894;BME280;31603;51.148;16.932;2022-08-30T01:17:39;100592.03;;;14.33;100.00
45894;BME280;31603;51.148;16.932;2022-08-30T01:20:10;100570.47;;;14.17;100.00
45894;BME280;31603;51.148;16.932;2022-08-30T01:22:41;100594.69;;;14.21;100.00
45894;BME280;31603;51.148;16.932;2022-08-30T01:25:12;100602.94;;;14.28;100.00
45894;BME280;31603;51.148;16.932;2022-08-30T01:27:46;100598.75;;;14.19;100.00
45894;BME280;31603;51.148;16.932;2022-08-30T01:30:15;100607.41;;;14.29;100.00
45894;BME280;31603;51.148;16.932;2022-08-30T01:32:45;100603.16;;;14.27;100.00
45894;BME280;31603;51.148;16.932;2022-08-30T01:35:19;100609.22;;;14.17;100.00
45894;BME280;31603;51.148;16.932;2022-08-30T01:37:46;100611.72;;;14.18;100.00
45894;BME280;31603;51.148;16.932;2022-08-30T01:40:15;100607.59;;;14.34;100.00
45894;BME280;31603;51.148;16.932;2022-08-30T01:42:41;100603.22;;;14.20;100.00
45894;BME280;31603;51.148;16.932;2022-08-30T01:45:08;100607.31;;;14.11;100.00
45894;BME280;31603;51.148;16.932;2022-08-30T01:47:35;100585.25;;;14.04;100.00
45894;BME280;31603;51.148;16.932;2022-08-30T01:50:04;100605.44;;;14.05;100.00
45894;BME280;31603;51.148;16.932;2022-08-30T01:52:30;100603.72;;;14.10;100.00
45894;BME280;31603;51.148;16.932;2022-08-30T01:54:57;100610.53;;;14.08;100.00
45894;BME280;31603;51.148;16.932;2022-08-30T01:57:27;100618.50;;;14.23;100.00
45894;BME280;31603;51.148;16.932;2022-08-30T01:59:54;100615.00;;;14.09;100.00
45894;BME280;31603;51.148;16.932;2022-08-30T02:02:24;100615.19;;;14.14;100.00
45894;BME280;31603;51.148;16.932;2022-08-30T02:04:52;100619.56;;;13.96;100.00
45894;BME280;31603;51.148;16.932;2022-08-30T02:07:19;100622.66;;;14.38;100.00
45894;BME280;31603;51.148;16.932;2022-08-30T02:09:46;100597.63;;;14.02;100.00
45894;BME280;31603;51.148;16.932;2022-08-30T02:12:13;100638.38;;;13.81;100.00
45894;BME280;31603;51.148;16.932;2022-08-30T02:14:41;100620.53;;;13.77;100.00
45894;BME280;31603;51.148;16.932;2022-08-30T02:17:09;100611.00;;;13.73;100.00
45894;BME280;31603;51.148;16.932;2022-08-30T02:19:37;100636.09;;;14.03;100.00
45894;BME280;31603;51.148;16.932;2022-08-30T02:22:04;100635.25;;;14.03;100.00
45894;BME280;31603;51.148;16.932;2022-08-30T02:24:30;100638.78;;;14.41;100.00
45894;BME280;31603;51.148;16.932;2022-08-30T02:26:57;100621.56;;;14.14;100.00
45894;BME280;31603;51.148;16.932;2022-08-30T02:29:24;100636.22;;;14.47;100.00
45894;BME280;31603;51.148;16.932;2022-08-30T02:31:51;100640.75;;;14.66;100.00
45894;BME280;31603;51.148;16.932;2022-08-30T02:34:18;100630.66;;;14.53;100.00
45894;BME280;31603;51.148;16.932;2022-08-30T02:36:45;100637.69;;;14.49;100.00
45894;BME280;31603;51.148;16.932;2022-08-30T02:39:12;100636.66;;;14.43;100.00
45894;BME280;31603;51.148;16.932;2022-08-30T02:41:39;100635.78;;;14.50;100.00
45894;BME280;31603;51.148;16.932;2022-08-30T02:44:07;100636.78;;;14.80;100.00
45894;BME280;31603;51.148;16.932;2022-08-30T02:46:35;100585.16;;;14.42;100.00
45894;BME280;31603;51.148;16.932;2022-08-30T02:49:03;100637.19;;;14.59;100.00
45894;BME280;31603;51.148;16.932;2022-08-30T02:51:33;100644.16;;;14.68;100.00
45894;BME280;31603;51.148;16.932;2022-08-30T02:53:59;100642.72;;;14.59;100.00
45894;BME280;31603;51.148;16.932;2022-08-30T02:56:26;100645.00;;;14.68;100.00
45894;BME280;31603;51.148;16.932;2022-08-30T02:58:53;100647.31;;;14.40;100.00
45894;BME280;31603;51.148;16.932;2022-08-30T03:01:19;100635.34;;;14.53;100.00
45894;BME280;31603;51.148;16.932;2022-08-30T03:03:46;100641.50;;;14.55;100.00
45894;BME280;31603;51.148;16.932;2022-08-30T03:06:14;100642.06;;;14.63;100.00
45894;BME280;31603;51.148;16.932;2022-08-30T03:08:41;100643.69;;;14.71;100.00
45894;BME280;31603;51.148;16.932;2022-08-30T03:11:07;100644.31;;;14.73;100.00
45894;BME280;31603;51.148;16.932;2022-08-30T03:13:34;100650.06;;;14.97;100.00
45894;BME280;31603;51.148;16.932;2022-08-30T03:16:00;100641.28;;;15.00;100.00
45894;BME280;31603;51.148;16.932;2022-08-30T03:18:27;100637.06;;;14.97;100.00
45894;BME280;31603;51.148;16.932;2022-08-30T03:20:53;100638.34;;;14.95;100.00
45894;BME280;31603;51.148;16.932;2022-08-30T03:23:22;100642.34;;;14.99;100.00
45894;BME280;31603;51.148;16.932;2022-08-30T03:25:49;100617.59;;;15.22;100.00
45894;BME280;31603;51.148;16.932;2022-08-30T03:28:16;100620.44;;;15.34;100.00
45894;BME280;31603;51.148;16.932;2022-08-30T03:30:42;100615.41;;;15.43;100.00
45894;BME280;31603;51.148;16.932;2022-08-30T03:33:09;100635.38;;;15.70;100.00
45894;BME280;31603;51.148;16.932;2022-08-30T03:35:35;100640.84;;;15.76;100.00
45894;BME280;31603;51.148;16.932;2022-08-30T03:38:02;100642.88;;;16.11;100.00
45894;BME280;31603;51.148;16.932;2022-08-30T03:40:30;100645.44;;;15.82;100.00
45894;BME280;31603;51.148;16.932;2022-08-30T03:42:57;100648.16;;;15.71;100.00
45894;BME280;31603;51.148;16.932;2022-08-30T03:45:23;100648.41;;;15.69;100.00
45894;BME280;31603;51.148;16.932;2022-08-30T03:47:49;100640.53;;;15.48;100.00
45894;BME280;31603;51.148;16.932;2022-08-30T03:50:16;100635.41;;;15.63;100.00
45894;BME280;31603;51.148;16.932;2022-08-30T03:52:42;100631.72;;;15.87;100.00
45894;BME280;31603;51.148;16.932;2022-08-30T03:55:10;100640.13;;;15.62;100.00
45894;BME280;31603;51.148;16.932;2022-08-30T03:57:37;100639.28;;;15.80;100.00
45894;BME280;31603;51.148;16.932;2022-08-30T04:00:06;100642.81;;;15.87;100.00
45894;BME280;31603;51.148;16.932;2022-08-30T04:02:33;100638.56;;;15.85;100.00
45894;BME280;31603;51.148;16.932;2022-08-30T04:04:59;100643.34;;;16.08;100.00
45894;BME280;31603;51.148;16.932;2022-08-30T04:07:26;100641.00;;;16.23;100.00
45894;BME280;31603;51.148;16.932;2022-08-30T04:09:53;100640.84;;;16.18;100.00
45894;BME280;31603;51.148;16.932;2022-08-30T04:12:19;100636.06;;;16.37;100.00
45894;BME280;31603;51.148;16.932;2022-08-30T04:14:47;100639.31;;;16.76;100.00
45894;BME280;31603;51.148;16.932;2022-08-30T04:17:13;100640.00;;;16.59;100.00
45894;BME280;31603;51.148;16.932;2022-08-30T04:19:40;100633.47;;;16.66;100.00
45894;BME280;31603;51.148;16.932;2022-08-30T04:22:06;100640.75;;;16.25;100.00
45894;BME280;31603;51.148;16.932;2022-08-30T04:24:33;100635.31;;;16.83;100.00
45894;BME280;31603;51.148;16.932;2022-08-30T04:26:59;100634.56;;;17.23;100.00
45894;BME280;31603;51.148;16.932;2022-08-30T04:29:26;100618.16;;;16.87;100.00
45894;BME280;31603;51.148;16.932;2022-08-30T04:31:53;100638.78;;;16.67;100.00
45894;BME280;31603;51.148;16.932;2022-08-30T04:34:20;100653.81;;;16.78;100.00
45894;BME280;31603;51.148;16.932;2022-08-30T04:36:47;100641.38;;;17.04;100.00
45894;BME280;31603;51.148;16.932;2022-08-30T04:39:14;100644.63;;;16.89;100.00
45894;BME280;31603;51.148;16.932;2022-08-30T04:41:41;100627.44;;;16.57;100.00
45894;BME280;31603;51.148;16.932;2022-08-30T04:44:07;100661.84;;;16.56;100.00
45894;BME280;31603;51.148;16.932;2022-08-30T04:46:34;100641.00;;;17.00;100.00
45894;BME280;31603;51.148;16.932;2022-08-30T04:49:04;100664.56;;;16.74;100.00
45894;BME280;31603;51.148;16.932;2022-08-30T04:51:31;100671.69;;;16.94;100.00
45894;BME280;31603;51.148;16.932;2022-08-30T04:53:57;100633.56;;;16.59;100.00
45894;BME280;31603;51.148;16.932;2022-08-30T04:56:24;100666.97;;;16.82;100.00
45894;BME280;31603;51.148;16.932;2022-08-30T04:58:53;100668.91;;;16.94;100.00
45894;BME280;31603;51.148;16.932;2022-08-30T05:01:24;100659.94;;;16.92;100.00
45894;BME280;31603;51.148;16.932;2022-08-30T05:03:52;100662.25;;;17.06;100.00
45894;BME280;31603;51.148;16.932;2022-08-30T05:06:22;100659.22;;;16.84;100.00
45894;BME280;31603;51.148;16.932;2022-08-30T05:08:49;100661.75;;;17.09;100.00
45894;BME280;31603;51.148;16.932;2022-08-30T05:11:16;100670.22;;;17.03;100.00
45894;BME280;31603;51.148;16.932;2022-08-30T05:13:43;100644.97;;;17.04;100.00
45894;BME280;31603;51.148;16.932;2022-08-30T05:16:11;100603.44;;;16.74;100.00
45894;BME280;31603;51.148;16.932;2022-08-30T05:18:42;100673.97;;;16.97;100.00
45894;BME280;31603;51.148;16.932;2022-08-30T05:21:11;100652.22;;;17.29;100.00
45894;BME280;31603;51.148;16.932;2022-08-30T05:23:40;100667.34;;;17.21;100.00
45894;BME280;31603;51.148;16.932;2022-08-30T05:26:09;100673.97;;;17.20;100.00
45894;BME280;31603;51.148;16.932;2022-08-30T05:28:37;100664.06;;;17.01;100.00
45894;BME280;31603;51.148;16.932;2022-08-30T05:31:12;100661.94;;;17.55;100.00
45894;BME280;31603;51.148;16.932;2022-08-30T05:33:38;100672.06;;;17.85;100.00
45894;BME280;31603;51.148;16.932;2022-08-30T05:36:05;100674.00;;;18.13;100.00
45894;BME280;31603;51.148;16.932;2022-08-30T05:38:32;100671.16;;;17.96;100.00
45894;BME280;31603;51.148;16.932;2022-08-30T05:40:59;100678.00;;;17.76;100.00
45894;BME280;31603;51.148;16.932;2022-08-30T05:43:26;100684.03;;;17.73;100.00
45894;BME280;31603;51.148;16.932;2022-08-30T05:45:58;100677.13;;;18.16;100.00
45894;BME280;31603;51.148;16.932;2022-08-30T05:48:25;100670.72;;;17.75;100.00
45894;BME280;31603;51.148;16.932;2022-08-30T05:51:00;100676.41;;;17.28;100.00
45894;BME280;31603;51.148;16.932;2022-08-30T05:53:27;100690.28;;;17.40;100.00
45894;BME280;31603;51.148;16.932;2022-08-30T05:55:53;100682.63;;;17.59;100.00
45894;BME280;31603;51.148;16.932;2022-08-30T05:58:21;100681.13;;;17.68;100.00
45894;BME280;31603;51.148;16.932;2022-08-30T06:00:47;100681.81;;;17.99;100.00
45894;BME280;31603;51.148;16.932;2022-08-30T06:03:14;100680.41;;;17.73;100.00
45894;BME280;31603;51.148;16.932;2022-08-30T06:05:40;100685.19;;;17.37;100.00
45894;BME280;31603;51.148;16.932;2022-08-30T06:08:06;100690.56;;;17.67;100.00
45894;BME280;31603;51.148;16.932;2022-08-30T06:10:33;100684.63;;;17.87;100.00
45894;BME280;31603;51.148;16.932;2022-08-30T06:13:00;100686.47;;;18.39;100.00
45894;BME280;31603;51.148;16.932;2022-08-30T06:15:27;100686.53;;;18.44;100.00
45894;BME280;31603;51.148;16.932;2022-08-30T06:17:54;100674.59;;;18.77;100.00
45894;BME280;31603;51.148;16.932;2022-08-30T06:20:21;100657.94;;;18.32;100.00
45894;BME280;31603;51.148;16.932;2022-08-30T06:22:47;100675.59;;;18.09;100.00
45894;BME280;31603;51.148;16.932;2022-08-30T06:25:14;100690.66;;;18.24;100.00
45894;BME280;31603;51.148;16.932;2022-08-30T06:27:41;100682.00;;;18.38;100.00
45894;BME280;31603;51.148;16.932;2022-08-30T06:30:09;100696.22;;;18.24;100.00
45894;BME280;31603;51.148;16.932;2022-08-30T06:32:37;100686.53;;;17.98;100.00
45894;BME280;31603;51.148;16.932;2022-08-30T06:35:06;100701.22;;;17.82;100.00
45894;BME280;31603;51.148;16.932;2022-08-30T06:37:33;100689.00;;;17.83;100.00
45894;BME280;31603;51.148;16.932;2022-08-30T06:40:01;100699.25;;;18.23;100.00
45894;BME280;31603;51.148;16.932;2022-08-30T06:42:30;100697.97;;;19.10;100.00
45894;BME280;31603;51.148;16.932;2022-08-30T06:44:58;100692.28;;;18.99;100.00
45894;BME280;31603;51.148;16.932;2022-08-30T06:47:24;100687.59;;;19.05;100.00
45894;BME280;31603;51.148;16.932;2022-08-30T06:49:52;100689.31;;;18.44;100.00
45894;BME280;31603;51.148;16.932;2022-08-30T06:52:19;100669.34;;;18.47;100.00
45894;BME280;31603;51.148;16.932;2022-08-30T06:54:45;100687.78;;;18.36;100.00
45894;BME280;31603;51.148;16.932;2022-08-30T06:57:12;100689.16;;;18.50;100.00
45894;BME280;31603;51.148;16.932;2022-08-30T06:59:38;100693.63;;;18.35;100.00
45894;BME280;31603;51.148;16.932;2022-08-30T07:02:06;100697.56;;;18.84;100.00
45894;BME280;31603;51.148;16.932;2022-08-30T07:04:33;100708.09;;;18.65;100.00
45894;BME280;31603;51.148;16.932;2022-08-30T07:07:01;100710.38;;;18.68;100.00
45894;BME280;31603;51.148;16.932;2022-08-30T07:09:29;100706.13;;;18.78;100.00
45894;BME280;31603;51.148;16.932;2022-08-30T07:12:00;100697.81;;;19.16;100.00
45894;BME280;31603;51.148;16.932;2022-08-30T07:14:27;100715.03;;;19.30;100.00
45894;BME280;31603;51.148;16.932;2022-08-30T07:16:53;100713.19;;;19.19;100.00
45894;BME280;31603;51.148;16.932;2022-08-30T07:19:21;100718.72;;;19.69;100.00
45894;BME280;31603;51.148;16.932;2022-08-30T07:21:46;100691.59;;;19.48;100.00
45894;BME280;31603;51.148;16.932;2022-08-30T07:24:15;100718.38;;;19.88;100.00
45894;BME280;31603;51.148;16.932;2022-08-30T07:26:44;100721.66;;;20.29;100.00
45894;BME280;31603;51.148;16.932;2022-08-30T07:29:13;100719.09;;;20.00;100.00
45894;BME280;31603;51.148;16.932;2022-08-30T07:31:39;100706.72;;;20.18;100.00
45894;BME280;31603;51.148;16.932;2022-08-30T07:34:07;100720.97;;;20.43;100.00
45894;BME280;31603;51.148;16.932;2022-08-30T07:36:34;100720.56;;;20.84;100.00
45894;BME280;31603;51.148;16.932;2022-08-30T07:39:02;100708.16;;;20.48;100.00
45894;BME280;31603;51.148;16.932;2022-08-30T07:41:32;100731.78;;;20.35;100.00
45894;BME280;31603;51.148;16.932;2022-08-30T07:44:00;100726.78;;;20.15;100.00
45894;BME280;31603;51.148;16.932;2022-08-30T07:46:26;100724.56;;;20.39;100.00
45894;BME280;31603;51.148;16.932;2022-08-30T07:48:53;100720.09;;;20.92;100.00
45894;BME280;31603;51.148;16.932;2022-08-30T07:51:22;100728.94;;;20.84;100.00
45894;BME280;31603;51.148;16.932;2022-08-30T07:53:49;100730.63;;;20.53;100.00
45894;BME280;31603;51.148;16.932;2022-08-30T07:56:16;100728.19;;;20.39;100.00
45894;BME280;31603;51.148;16.932;2022-08-30T07:58:44;100719.03;;;21.83;100.00
45894;BME280;31603;51.148;16.932;2022-08-30T08:01:11;100711.53;;;21.99;100.00
45894;BME280;31603;51.148;16.932;2022-08-30T08:03:40;100723.72;;;21.30;100.00
45894;BME280;31603;51.148;16.932;2022-08-30T08:06:09;100725.38;;;21.26;100.00
45894;BME280;31603;51.148;16.932;2022-08-30T08:08:36;100739.00;;;20.53;100.00
45894;BME280;31603;51.148;16.932;2022-08-30T08:11:05;100732.56;;;21.16;100.00
45894;BME280;31603;51.148;16.932;2022-08-30T08:13:31;100713.94;;;22.58;100.00
45894;BME280;31603;51.148;16.932;2022-08-30T08:16:00;100721.88;;;22.92;100.00
45894;BME280;31603;51.148;16.932;2022-08-30T08:18:26;100721.69;;;21.57;100.00
45894;BME280;31603;51.148;16.932;2022-08-30T08:20:52;100739.53;;;21.46;100.00
45894;BME280;31603;51.148;16.932;2022-08-30T08:23:19;100733.34;;;21.92;100.00
45894;BME280;31603;51.148;16.932;2022-08-30T08:25:46;100732.72;;;22.47;100.00
45894;BME280;31603;51.148;16.932;2022-08-30T08:28:12;100722.06;;;23.67;100.00
45894;BME280;31603;51.148;16.932;2022-08-30T08:30:39;100733.06;;;23.27;100.00
45894;BME280;31603;51.148;16.932;2022-08-30T08:33:07;100730.53;;;21.86;100.00
45894;BME280;31603;51.148;16.932;2022-08-30T08:35:33;100747.75;;;21.63;100.00
45894;BME280;31603;51.148;16.932;2022-08-30T08:38:00;100742.03;;;21.90;100.00
45894;BME280;31603;51.148;16.932;2022-08-30T08:40:27;100735.94;;;22.08;100.00
45894;BME280;31603;51.148;16.932;2022-08-30T08:43:00;100730.97;;;22.21;100.00
45894;BME280;31603;51.148;16.932;2022-08-30T08:45:36;100725.72;;;23.67;100.00
45894;BME280;31603;51.148;16.932;2022-08-30T08:48:09;100747.94;;;23.23;100.00
45894;BME280;31603;51.148;16.932;2022-08-30T08:50:37;100744.81;;;22.63;100.00
45894;BME280;31603;51.148;16.932;2022-08-30T08:53:29;100745.66;;;22.64;100.00
45894;BME280;31603;51.148;16.932;2022-08-30T08:56:00;100741.13;;;22.37;100.00
45894;BME280;31603;51.148;16.932;2022-08-30T08:58:32;100741.81;;;22.07;100.00
45894;BME280;31603;51.148;16.932;2022-08-30T09:01:01;100743.25;;;22.15;100.00
45894;BME280;31603;51.148;16.932;2022-08-30T09:03:29;100724.00;;;21.71;100.00
45894;BME280;31603;51.148;16.932;2022-08-30T09:06:10;100742.47;;;22.19;100.00
45894;BME280;31603;51.148;16.932;2022-08-30T09:08:44;100714.25;;;23.43;100.00
45894;BME280;31603;51.148;16.932;2022-08-30T09:11:21;100731.94;;;24.79;100.00
45894;BME280;31603;51.148;16.932;2022-08-30T09:13:49;100732.75;;;23.70;100.00
45894;BME280;31603;51.148;16.932;2022-08-30T09:16:51;100732.28;;;24.17;100.00
45894;BME280;31603;51.148;16.932;2022-08-30T09:19:41;100731.91;;;24.84;100.00
45894;BME280;31603;51.148;16.932;2022-08-30T09:22:15;100735.69;;;25.37;100.00
45894;BME280;31603;51.148;16.932;2022-08-30T09:24:46;100711.78;;;25.01;100.00
45894;BME280;31603;51.148;16.932;2022-08-30T09:27:24;100728.81;;;24.36;100.00
45894;BME280;31603;51.148;16.932;2022-08-30T09:29:54;100730.13;;;24.59;100.00
45894;BME280;31603;51.148;16.932;2022-08-30T09:32:23;100723.47;;;24.34;100.00
45894;BME280;31603;51.148;16.932;2022-08-30T09:34:51;100726.84;;;25.73;100.00
45894;BME280;31603;51.148;16.932;2022-08-30T09:37:28;100722.38;;;26.39;100.00
45894;BME280;31603;51.148;16.932;2022-08-30T09:39:56;100726.25;;;25.23;100.00
45894;BME280;31603;51.148;16.932;2022-08-30T09:42:25;100717.03;;;24.78;100.00
45894;BME280;31603;51.148;16.932;2022-08-30T09:44:54;100706.59;;;26.38;100.00
45894;BME280;31603;51.148;16.932;2022-08-30T09:47:35;100711.41;;;24.78;100.00
45894;BME280;31603;51.148;16.932;2022-08-30T09:50:08;100715.72;;;24.65;100.00
45894;BME280;31603;51.148;16.932;2022-08-30T09:52:46;100706.66;;;24.24;100.00
45894;BME280;31603;51.148;16.932;2022-08-30T09:55:35;100713.34;;;24.83;100.00
45894;BME280;31603;51.148;16.932;2022-08-30T09:58:08;100685.69;;;24.56;100.00
45894;BME280;31603;51.148;16.932;2022-08-30T10:00:39;100719.38;;;25.87;100.00
45894;BME280;31603;51.148;16.932;2022-08-30T10:03:19;100707.09;;;26.64;100.00
45894;BME280;31603;51.148;16.932;2022-08-30T10:05:56;100705.16;;;26.40;100.00
45894;BME280;31603;51.148;16.932;2022-08-30T10:08:32;100711.06;;;24.85;100.00
45894;BME280;31603;51.148;16.932;2022-08-30T10:11:04;100715.03;;;25.18;100.00
45894;BME280;31603;51.148;16.932;2022-08-30T10:13:45;100709.88;;;24.57;100.00
45894;BME280;31603;51.148;16.932;2022-08-30T10:16:24;100707.78;;;24.28;100.00
45894;BME280;31603;51.148;16.932;2022-08-30T10:19:02;100699.59;;;23.77;100.00
45894;BME280;31603;51.148;16.932;2022-08-30T10:21:34;100699.81;;;23.91;100.00
45894;BME280;31603;51.148;16.932;2022-08-30T10:24:06;100692.31;;;23.61;100.00
45894;BME280;31603;51.148;16.932;2022-08-30T10:26:35;100691.66;;;23.89;100.00
45894;BME280;31603;51.148;16.932;2022-08-30T10:29:08;100693.47;;;23.49;100.00
45894;BME280;31603;51.148;16.932;2022-08-30T10:31:41;100702.50;;;23.11;100.00
45894;BME280;31603;51.148;16.932;2022-08-30T10:34:22;100690.91;;;23.68;100.00
45894;BME280;31603;51.148;16.932;2022-08-30T10:37:03;100701.66;;;24.65;100.00
45894;BME280;31603;51.148;16.932;2022-08-30T10:39:36;100697.94;;;24.75;100.00
45894;BME280;31603;51.148;16.932;2022-08-30T10:42:09;100698.66;;;25.25;100.00
45894;BME280;31603;51.148;16.932;2022-08-30T10:44:40;100683.78;;;23.91;100.00
45894;BME280;31603;51.148;16.932;2022-08-30T10:47:16;100690.38;;;24.21;100.00
45894;BME280;31603;51.148;16.932;2022-08-30T10:49:47;100680.38;;;24.05;100.00
45894;BME280;31603;51.148;16.932;2022-08-30T10:52:24;100682.81;;;23.41;100.00
45894;BME280;31603;51.148;16.932;2022-08-30T10:54:58;100673.31;;;23.12;100.00
45894;BME280;31603;51.148;16.932;2022-08-30T10:57:26;100684.81;;;22.85;100.00
45894;BME280;31603;51.148;16.932;2022-08-30T10:59:56;100678.41;;;24.00;100.00
45894;BME280;31603;51.148;16.932;2022-08-30T11:02:52;100679.13;;;25.34;100.00
45894;BME280;31603;51.148;16.932;2022-08-30T11:05:40;100680.59;;;24.63;100.00
45894;BME280;31603;51.148;16.932;2022-08-30T11:08:27;100645.81;;;24.48;100.00
45894;BME280;31603;51.148;16.932;2022-08-30T11:11:05;100651.63;;;24.62;100.00
45894;BME280;31603;51.148;16.932;2022-08-30T11:13:37;100675.19;;;25.01;100.00
45894;BME280;31603;51.148;16.932;2022-08-30T11:16:07;100662.53;;;24.98;100.00
45894;BME280;31603;51.148;16.932;2022-08-30T11:18:42;100669.81;;;25.04;100.00
45894;BME280;31603;51.148;16.932;2022-08-30T11:21:18;100657.59;;;24.50;100.00
45894;BME280;31603;51.148;16.932;2022-08-30T11:24:01;100659.84;;;24.54;100.00
45894;BME280;31603;51.148;16.932;2022-08-30T11:26:51;100669.28;;;24.73;100.00
45894;BME280;31603;51.148;16.932;2022-08-30T11:29:33;100665.50;;;24.48;100.00
45894;BME280;31603;51.148;16.932;2022-08-30T11:32:19;100646.72;;;24.78;100.00
45894;BME280;31603;51.148;16.932;2022-08-30T11:34:55;100655.56;;;26.91;95.61
45894;BME280;31603;51.148;16.932;2022-08-30T11:37:39;100662.59;;;27.40;96.75
45894;BME280;31603;51.148;16.932;2022-08-30T11:40:44;100656.31;;;26.26;100.00
45894;BME280;31603;51.148;16.932;2022-08-30T11:43:49;100665.25;;;25.90;100.00
45894;BME280;31603;51.148;16.932;2022-08-30T11:46:17;100658.53;;;25.38;100.00
45894;BME280;31603;51.148;16.932;2022-08-30T11:48:47;100636.59;;;24.77;100.00
45894;BME280;31603;51.148;16.932;2022-08-30T11:54:07;100661.59;;;24.84;100.00
45894;BME280;31603;51.148;16.932;2022-08-30T11:56:45;100660.19;;;24.81;100.00
45894;BME280;31603;51.148;16.932;2022-08-30T11:59:21;100660.78;;;24.78;100.00
45894;BME280;31603;51.148;16.932;2022-08-30T12:01:51;100658.47;;;24.85;100.00
45894;BME280;31603;51.148;16.932;2022-08-30T12:04:33;100644.13;;;26.50;100.00
45894;BME280;31603;51.148;16.932;2022-08-30T12:07:03;100635.94;;;27.60;88.73
45894;BME280;31603;51.148;16.932;2022-08-30T12:10:00;100652.94;;;28.38;82.21
45894;BME280;31603;51.148;16.932;2022-08-30T12:12:52;100666.16;;;29.81;70.57
45894;BME280;31603;51.148;16.932;2022-08-30T12:18:26;100658.22;;;29.20;59.72
45894;BME280;31603;51.148;16.932;2022-08-30T12:20:53;100636.09;;;30.45;50.69
45894;BME280;31603;51.148;16.932;2022-08-30T12:23:26;100635.19;;;30.10;51.34
45894;BME280;31603;51.148;16.932;2022-08-30T12:26:09;100625.59;;;28.19;53.87
45894;BME280;31603;51.148;16.932;2022-08-30T12:28:39;100646.94;;;30.69;47.61
45894;BME280;31603;51.148;16.932;2022-08-30T12:31:21;100644.47;;;29.67;50.38
45894;BME280;31603;51.148;16.932;2022-08-30T12:33:52;100642.22;;;31.08;46.51
45894;BME280;31603;51.148;16.932;2022-08-30T12:36:33;100631.22;;;30.98;45.21
45894;BME280;31603;51.148;16.932;2022-08-30T12:39:05;100629.84;;;32.19;43.28
45894;BME280;31603;51.148;16.932;2022-08-30T12:41:32;100626.25;;;32.73;44.00
45894;BME280;31603;51.148;16.932;2022-08-30T12:44:00;100628.38;;;33.79;41.34
45894;BME280;31603;51.148;16.932;2022-08-30T12:46:27;100622.78;;;32.46;42.81
45894;BME280;31603;51.148;16.932;2022-08-30T12:48:54;100612.38;;;30.50;49.56
45894;BME280;31603;51.148;16.932;2022-08-30T12:51:34;100610.16;;;29.38;53.16